Time;durP1;ratioP1;P1;durP2;ratioP2;P2;SDS_P1;SDS_P2;PMS_P1;PMS_P2;Temp;Humidity;BMP_temperature;BMP_pressure;BME280_temperature;BME280_humidity;BME280_pressure;Samples;Min_cycle;Max_cycle;Signal;HPM_P1;HPM_P2
2022/09/03 00:00:06;;;;;;;1.12;0.90;;;;;;;;;;2372123;56;21647;-75
2022/09/03 00:02:36;;;;;;;2.00;1.02;;;;;;;;;;2374981;52;21043;-76
2022/09/03 00:05:06;;;;;;;1.00;0.75;;;;;;;;;;2371479;56;21051;-76
2022/09/03 00:07:39;;;;;;;0.93;0.80;;;;;;;;;;2377680;52;21074;-76
2022/09/03 00:10:09;;;;;;;1.30;1.00;;;;;;;;;;2374008;56;21035;-76
2022/09/03 00:12:39;;;;;;;1.60;0.80;;;;;;;;;;2373369;56;21110;-76
2022/09/03 00:15:07;;;;;;;1.30;0.95;;;;;;;;;;2372719;56;21090;-75
2022/09/03 00:17:38;;;;;;;1.58;0.95;;;;;;;;;;2378258;52;21170;-77
2022/09/03 00:20:07;;;;;;;1.42;1.00;;;;;;;;;;2439171;52;21078;-76
2022/09/03 00:22:36;;;;;;;3.50;0.90;;;;;;;;;;2372992;56;21747;-75
2022/09/03 00:25:05;;;;;;;1.12;0.80;;;;;;;;;;2373186;56;21057;-77
2022/09/03 00:27:36;;;;;;;2.53;0.88;;;;;;;;;;2372967;56;21039;-76
2022/09/03 00:30:05;;;;;;;3.10;1.05;;;;;;;;;;2373773;52;21114;-77
2022/09/03 00:32:39;;;;;;;1.10;1.00;;;;;;;;;;2403750;52;21043;-76
2022/09/03 00:35:12;;;;;;;2.37;0.90;;;;;;;;;;2401132;52;21046;-77
2022/09/03 00:37:40;;;;;;;1.00;0.80;;;;;;;;;;2373510;56;21047;-75
2022/09/03 00:40:15;;;;;;;1.12;0.73;;;;;;;;;;2373810;56;21035;-74
2022/09/03 00:42:47;;;;;;;1.75;1.10;;;;;;;;;;2373382;56;21110;-75
2022/09/03 00:45:18;;;;;;;2.42;0.88;;;;;;;;;;2373410;56;21161;-74
2022/09/03 00:47:55;;;;;;;2.50;1.50;;;;;;;;;;2373897;56;21046;-74
2022/09/03 00:50:28;;;;;;;1.27;0.93;;;;;;;;;;2373371;56;21058;-73
2022/09/03 00:52:59;;;;;;;1.50;1.12;;;;;;;;;;2373697;56;21094;-76
2022/09/03 00:55:31;;;;;;;0.93;0.75;;;;;;;;;;2372164;56;21059;-77
2022/09/03 00:58:04;;;;;;;1.67;0.90;;;;;;;;;;2373638;56;21082;-75
2022/09/03 01:00:31;;;;;;;1.67;1.00;;;;;;;;;;2374132;56;21514;-76
2022/09/03 01:03:05;;;;;;;1.40;0.90;;;;;;;;;;2373565;56;21043;-76
2022/09/03 01:05:42;;;;;;;2.58;0.80;;;;;;;;;;2371568;56;21042;-74
2022/09/03 01:08:20;;;;;;;4.10;0.90;;;;;;;;;;2373467;56;21129;-76
2022/09/03 01:10:53;;;;;;;2.08;0.82;;;;;;;;;;2421623;54;74197;-79
2022/09/03 01:13:22;;;;;;;2.60;1.02;;;;;;;;;;2541748;54;21070;-78
2022/09/03 01:15:55;;;;;;;3.70;1.15;;;;;;;;;;2540503;54;22254;-78
2022/09/03 01:18:26;;;;;;;1.73;1.17;;;;;;;;;;2541053;54;21066;-79
2022/09/03 01:21:00;;;;;;;1.35;1.10;;;;;;;;;;2539818;54;21051;-78
2022/09/03 01:23:43;;;;;;;0.98;0.95;;;;;;;;;;2301589;58;21106;-77
2022/09/03 01:26:23;;;;;;;1.05;0.93;;;;;;;;;;2301618;58;21150;-82
2022/09/03 01:28:56;;;;;;;0.75;0.75;;;;;;;;;;2538981;54;21195;-79
2022/09/03 01:31:28;;;;;;;3.20;0.90;;;;;;;;;;2301750;58;21138;-78
2022/09/03 01:34:00;;;;;;;2.28;1.73;;;;;;;;;;2538698;54;21063;-78
2022/09/03 01:36:32;;;;;;;3.22;1.08;;;;;;;;;;2301634;58;21633;-79
2022/09/03 01:39:02;;;;;;;1.40;1.27;;;;;;;;;;2302572;58;21118;-77
2022/09/03 01:44:26;;;;;;;1.50;0.90;;;;;;;;;;2301923;58;21067;-80
2022/09/03 01:47:09;;;;;;;2.00;1.10;;;;;;;;;;2300144;58;21070;-77
2022/09/03 01:49:40;;;;;;;1.08;0.85;;;;;;;;;;2300965;58;21066;-78
2022/09/03 01:52:11;;;;;;;1.45;1.00;;;;;;;;;;2301799;58;21058;-77
2022/09/03 01:54:49;;;;;;;1.35;1.10;;;;;;;;;;2301633;58;21054;-77
2022/09/03 01:57:32;;;;;;;2.35;1.10;;;;;;;;;;2301307;58;21767;-79
2022/09/03 02:00:02;;;;;;;3.35;1.00;;;;;;;;;;2304565;58;21047;-79
2022/09/03 02:02:30;;;;;;;0.98;0.80;;;;;;;;;;2304437;58;21046;-80
2022/09/03 02:05:00;;;;;;;2.75;0.90;;;;;;;;;;2541386;54;21087;-80
2022/09/03 02:07:32;;;;;;;1.12;1.02;;;;;;;;;;2304560;58;21078;-80
2022/09/03 02:09:59;;;;;;;0.80;0.73;;;;;;;;;;2543091;54;21058;-81
2022/09/03 02:12:32;;;;;;;3.45;1.50;;;;;;;;;;2304314;58;21055;-79
2022/09/03 02:15:02;;;;;;;2.05;1.00;;;;;;;;;;2542279;54;21058;-80
2022/09/03 02:17:29;;;;;;;1.20;1.00;;;;;;;;;;2303338;58;21066;-80
2022/09/03 02:19:57;;;;;;;2.42;1.12;;;;;;;;;;2542225;54;21039;-80
2022/09/03 02:22:24;;;;;;;3.12;1.12;;;;;;;;;;2304560;58;21082;-80
2022/09/03 02:24:51;;;;;;;2.20;1.20;;;;;;;;;;2540587;54;21083;-78
2022/09/03 02:27:19;;;;;;;1.92;1.20;;;;;;;;;;2541974;54;21062;-80
2022/09/03 02:29:46;;;;;;;1.30;0.90;;;;;;;;;;2542747;54;21058;-80
2022/09/03 02:32:14;;;;;;;1.67;1.20;;;;;;;;;;2304273;58;21070;-81
2022/09/03 02:34:42;;;;;;;2.33;0.90;;;;;;;;;;2304119;58;21059;-79
2022/09/03 02:37:12;;;;;;;2.28;1.10;;;;;;;;;;2542074;54;21102;-79
2022/09/03 02:39:40;;;;;;;1.08;0.70;;;;;;;;;;2542191;54;21567;-80
2022/09/03 02:42:07;;;;;;;1.73;1.20;;;;;;;;;;2304064;58;21063;-80
2022/09/03 02:44:37;;;;;;;3.78;1.10;;;;;;;;;;2303578;58;21122;-78
2022/09/03 02:47:05;;;;;;;1.95;1.00;;;;;;;;;;2303248;58;21069;-80
2022/09/03 02:49:32;;;;;;;2.12;1.52;;;;;;;;;;2303709;58;21070;-79
2022/09/03 02:52:00;;;;;;;1.10;0.90;;;;;;;;;;2303256;58;21030;-78
2022/09/03 02:54:27;;;;;;;1.55;1.30;;;;;;;;;;2542027;54;21582;-79
2022/09/03 02:56:54;;;;;;;1.60;0.90;;;;;;;;;;2302657;58;21099;-80
2022/09/03 02:59:21;;;;;;;1.98;0.90;;;;;;;;;;2303897;58;21055;-79
2022/09/03 03:01:48;;;;;;;1.17;0.90;;;;;;;;;;2303738;58;21137;-79
2022/09/03 03:04:16;;;;;;;1.37;1.08;;;;;;;;;;2303583;58;21791;-79
2022/09/03 03:06:42;;;;;;;1.23;1.10;;;;;;;;;;2541306;54;21082;-80
2022/09/03 03:09:09;;;;;;;2.62;1.00;;;;;;;;;;2542096;54;21555;-79
2022/09/03 03:11:37;;;;;;;1.33;1.00;;;;;;;;;;2304343;58;21055;-78
2022/09/03 03:14:04;;;;;;;1.75;1.05;;;;;;;;;;2303769;58;21054;-78
2022/09/03 03:16:31;;;;;;;1.37;0.82;;;;;;;;;;2302672;58;21055;-78
2022/09/03 03:18:59;;;;;;;1.75;0.93;;;;;;;;;;2304385;58;21078;-78
2022/09/03 03:24:01;;;;;;;2.45;1.30;;;;;;;;;;2313711;57;27806;-77
2022/09/03 03:26:29;;;;;;;2.85;0.90;;;;;;;;;;2593239;53;21065;-77
2022/09/03 03:28:57;;;;;;;1.48;1.17;;;;;;;;;;2347367;57;21600;-77
2022/09/03 03:31:24;;;;;;;1.77;1.10;;;;;;;;;;2347223;57;21026;-76
2022/09/03 03:33:52;;;;;;;1.65;1.05;;;;;;;;;;2346771;57;21512;-77
2022/09/03 03:36:19;;;;;;;1.75;1.12;;;;;;;;;;2592950;53;21508;-78
2022/09/03 03:38:46;;;;;;;1.23;0.95;;;;;;;;;;2347100;57;21034;-76
2022/09/03 03:41:15;;;;;;;1.70;1.10;;;;;;;;;;2345672;57;21118;-78
2022/09/03 03:43:43;;;;;;;3.62;1.40;;;;;;;;;;2346863;57;21030;-76
2022/09/03 03:46:10;;;;;;;0.85;0.85;;;;;;;;;;2346044;57;21528;-77
2022/09/03 03:48:38;;;;;;;4.65;0.98;;;;;;;;;;2591196;53;21077;-80
2022/09/03 03:51:06;;;;;;;1.00;0.90;;;;;;;;;;2346931;57;21029;-82
2022/09/03 03:53:34;;;;;;;2.97;1.15;;;;;;;;;;2347686;57;21544;-77
2022/09/03 03:56:03;;;;;;;3.67;2.50;;;;;;;;;;2593385;53;21501;-77
2022/09/03 03:58:31;;;;;;;12.50;2.90;;;;;;;;;;2346755;57;21109;-79
2022/09/03 04:01:04;;;;;;;13.38;2.20;;;;;;;;;;2345380;57;21110;-78
2022/09/03 04:03:30;;;;;;;;;;;;;;;;;;2350660;57;21627;-77
2022/09/03 04:05:58;;;;;;;17.67;3.85;;;;;;;;;;2594174;53;20325;-77
2022/09/03 04:08:25;;;;;;;30.23;7.85;;;;;;;;;;2347356;57;21038;-77
2022/09/03 04:10:53;;;;;;;45.80;8.32;;;;;;;;;;2594940;53;21674;-78
2022/09/03 04:13:20;;;;;;;30.45;6.07;;;;;;;;;;2347414;57;21664;-77
2022/09/03 04:15:47;;;;;;;25.45;4.87;;;;;;;;;;2593315;53;21053;-76
2022/09/03 04:18:14;;;;;;;28.50;5.82;;;;;;;;;;2347341;57;21626;-77
2022/09/03 04:20:41;;;;;;;19.73;4.53;;;;;;;;;;2347400;57;21109;-77
2022/09/03 04:23:08;;;;;;;20.08;3.85;;;;;;;;;;2346942;57;21057;-77
2022/09/03 04:25:35;;;;;;;21.70;3.45;;;;;;;;;;2346463;57;21617;-78
2022/09/03 04:28:03;;;;;;;18.00;3.60;;;;;;;;;;2346566;57;21117;-77
2022/09/03 04:30:30;;;;;;;7.90;2.08;;;;;;;;;;2346381;57;21081;-78
2022/09/03 04:32:57;;;;;;;11.40;2.67;;;;;;;;;;2347096;57;21520;-77
2022/09/03 04:35:28;;;;;;;10.50;2.45;;;;;;;;;;2345148;57;21102;-76
2022/09/03 04:37:56;;;;;;;18.05;4.50;;;;;;;;;;2345869;57;21033;-80
2022/09/03 04:40:23;;;;;;;20.50;5.55;;;;;;;;;;2344925;57;21125;-78
2022/09/03 04:42:51;;;;;;;10.15;4.00;;;;;;;;;;2591995;53;21168;-78
2022/09/03 04:45:19;;;;;;;10.43;3.17;;;;;;;;;;2344720;57;21111;-76
2022/09/03 04:47:55;;;;;;;13.82;3.90;;;;;;;;;;2345219;57;21042;-77
2022/09/03 04:50:22;;;;;;;18.65;4.82;;;;;;;;;;2345091;57;21117;-81
2022/09/03 04:52:49;;;;;;;15.50;4.75;;;;;;;;;;2344915;57;21065;-78
2022/09/03 04:55:18;;;;;;;15.05;3.95;;;;;;;;;;2344876;57;21491;-77
2022/09/03 04:57:45;;;;;;;13.18;3.87;;;;;;;;;;2344658;57;21132;-77
2022/09/03 05:00:13;;;;;;;25.67;6.57;;;;;;;;;;2345746;57;21034;-78
2022/09/03 05:02:40;;;;;;;35.15;6.65;;;;;;;;;;2346072;57;22147;-77
2022/09/03 05:05:07;;;;;;;28.27;6.12;;;;;;;;;;2345557;57;21126;-77
2022/09/03 05:07:37;;;;;;;7.05;3.00;;;;;;;;;;2345656;57;21561;-79
2022/09/03 05:10:06;;;;;;;16.73;3.97;;;;;;;;;;2345859;57;21124;-77
2022/09/03 05:12:33;;;;;;;16.42;3.28;;;;;;;;;;2346379;57;21512;-78
2022/09/03 05:15:00;;;;;;;8.07;2.65;;;;;;;;;;2591208;53;21041;-77
2022/09/03 05:17:27;;;;;;;7.35;2.12;;;;;;;;;;2345577;57;21062;-78
2022/09/03 05:19:54;;;;;;;7.85;2.55;;;;;;;;;;2593619;52;21034;-77
2022/09/03 05:22:21;;;;;;;13.93;4.72;;;;;;;;;;2345290;57;21053;-79
2022/09/03 05:24:49;;;;;;;19.00;5.07;;;;;;;;;;2346257;57;21161;-75
2022/09/03 05:27:16;;;;;;;12.40;3.58;;;;;;;;;;2346039;57;21046;-79
2022/09/03 05:29:44;;;;;;;4.40;1.65;;;;;;;;;;2345781;57;21041;-75
2022/09/03 05:32:11;;;;;;;3.10;0.80;;;;;;;;;;2344670;57;21094;-76
2022/09/03 05:34:39;;;;;;;1.05;0.90;;;;;;;;;;2345407;57;21124;-77
2022/09/03 05:37:06;;;;;;;1.42;1.00;;;;;;;;;;2344706;57;21035;-76
2022/09/03 05:39:33;;;;;;;0.80;0.80;;;;;;;;;;2345480;57;21042;-77
2022/09/03 05:42:00;;;;;;;1.02;0.90;;;;;;;;;;2345363;57;21085;-80
2022/09/03 05:44:27;;;;;;;1.20;0.90;;;;;;;;;;2346406;57;21560;-78
2022/09/03 05:46:54;;;;;;;3.67;1.02;;;;;;;;;;2345739;57;21030;-78
2022/09/03 05:49:21;;;;;;;1.40;1.00;;;;;;;;;;2346412;57;21576;-77
2022/09/03 05:51:48;;;;;;;3.50;1.08;;;;;;;;;;2346271;57;21034;-76
2022/09/03 05:54:15;;;;;;;4.15;1.20;;;;;;;;;;2593162;52;21035;-77
2022/09/03 05:56:42;;;;;;;1.25;1.08;;;;;;;;;;2346028;57;21109;-77
2022/09/03 05:59:12;;;;;;;2.08;1.15;;;;;;;;;;2346540;57;21049;-80
2022/09/03 06:01:40;;;;;;;1.95;0.93;;;;;;;;;;2346567;57;21165;-77
2022/09/03 06:04:08;;;;;;;1.35;0.90;;;;;;;;;;2346615;57;21038;-75
2022/09/03 06:06:36;;;;;;;1.40;0.85;;;;;;;;;;2345082;57;21268;-76
2022/09/03 06:09:04;;;;;;;0.98;0.90;;;;;;;;;;2346560;57;21085;-76
2022/09/03 06:11:32;;;;;;;1.10;1.00;;;;;;;;;;2593526;53;21117;-77
2022/09/03 06:14:00;;;;;;;1.45;1.10;;;;;;;;;;2346540;57;21109;-78
2022/09/03 06:16:28;;;;;;;3.75;1.20;;;;;;;;;;2345968;57;21109;-77
2022/09/03 06:18:55;;;;;;;2.72;1.08;;;;;;;;;;2592179;53;21045;-80
2022/09/03 06:21:23;;;;;;;5.70;1.17;;;;;;;;;;2346201;57;21025;-76
2022/09/03 06:23:50;;;;;;;1.12;0.90;;;;;;;;;;2345792;57;21093;-78
2022/09/03 06:26:18;;;;;;;2.37;1.00;;;;;;;;;;2345759;57;21121;-79
2022/09/03 06:28:47;;;;;;;2.28;1.20;;;;;;;;;;2344751;57;21046;-81
2022/09/03 06:31:15;;;;;;;1.98;1.20;;;;;;;;;;2591180;53;21027;-77
2022/09/03 06:33:42;;;;;;;3.97;1.10;;;;;;;;;;2591190;52;21042;-81
2022/09/03 06:36:11;;;;;;;2.40;1.00;;;;;;;;;;2343988;57;21645;-77
2022/09/03 06:38:39;;;;;;;1.40;1.15;;;;;;;;;;2344470;57;21073;-78
2022/09/03 06:41:07;;;;;;;2.58;1.25;;;;;;;;;;2345124;57;22189;-77
2022/09/03 06:43:35;;;;;;;2.15;1.10;;;;;;;;;;2345350;57;21845;-76
2022/09/03 06:46:03;;;;;;;6.85;1.25;;;;;;;;;;2344936;57;21133;-80
2022/09/03 06:48:31;;;;;;;2.20;1.20;;;;;;;;;;2344906;57;21627;-78
2022/09/03 06:51:00;;;;;;;2.97;1.00;;;;;;;;;;2343041;57;21057;-78
2022/09/03 06:53:28;;;;;;;1.50;1.15;;;;;;;;;;2344534;57;21045;-79
2022/09/03 06:55:56;;;;;;;4.57;1.20;;;;;;;;;;2589862;53;21061;-78
2022/09/03 06:58:24;;;;;;;2.67;1.20;;;;;;;;;;2345581;57;21540;-79
2022/09/03 07:00:52;;;;;;;2.12;1.08;;;;;;;;;;2344703;57;21089;-78
2022/09/03 07:03:19;;;;;;;2.20;1.33;;;;;;;;;;2344717;57;21096;-78
2022/09/03 07:05:46;;;;;;;1.77;1.23;;;;;;;;;;2344502;57;21025;-80
2022/09/03 07:08:13;;;;;;;3.87;1.30;;;;;;;;;;2591817;53;21022;-78
2022/09/03 07:10:42;;;;;;;1.17;1.00;;;;;;;;;;2365989;52;21018;-77
2022/09/03 07:13:09;;;;;;;3.35;1.17;;;;;;;;;;2315342;58;21247;-77
2022/09/03 07:15:36;;;;;;;1.90;1.40;;;;;;;;;;2557689;54;21078;-77
2022/09/03 07:18:03;;;;;;;1.33;1.10;;;;;;;;;;2317236;58;21709;-77
2022/09/03 07:20:31;;;;;;;1.33;1.05;;;;;;;;;;2317434;58;21200;-76
2022/09/03 07:22:58;;;;;;;2.00;1.10;;;;;;;;;;2558452;54;21069;-77
2022/09/03 07:25:26;;;;;;;5.22;2.03;;;;;;;;;;2555214;54;21062;-75
2022/09/03 07:27:53;;;;;;;2.33;1.50;;;;;;;;;;2554655;54;21120;-74
2022/09/03 07:30:20;;;;;;;1.85;0.98;;;;;;;;;;2316280;58;21081;-76
2022/09/03 07:32:50;;;;;;;2.60;0.90;;;;;;;;;;2316001;58;21074;-77
2022/09/03 07:35:18;;;;;;;3.30;1.27;;;;;;;;;;2316412;58;21081;-76
2022/09/03 07:37:45;;;;;;;2.10;1.10;;;;;;;;;;2318428;58;21053;-76
2022/09/03 07:40:14;;;;;;;2.03;1.20;;;;;;;;;;2559232;54;21122;-76
2022/09/03 07:42:41;;;;;;;1.92;1.15;;;;;;;;;;2317311;58;21252;-76
2022/09/03 07:45:09;;;;;;;3.95;1.25;;;;;;;;;;2557262;54;21042;-75
2022/09/03 07:47:36;;;;;;;2.40;0.98;;;;;;;;;;2317252;58;21062;-77
2022/09/03 07:50:04;;;;;;;1.83;1.17;;;;;;;;;;2560116;54;21057;-78
2022/09/03 07:52:32;;;;;;;1.60;1.40;;;;;;;;;;2318566;58;21094;-78
2022/09/03 07:54:59;;;;;;;1.58;1.08;;;;;;;;;;2318117;58;21132;-77
2022/09/03 07:57:26;;;;;;;2.35;1.23;;;;;;;;;;2320583;58;21105;-78
2022/09/03 08:02:28;;;;;;;2.40;1.20;;;;;;;;;;2310922;57;28010;-77
2022/09/03 08:04:55;;;;;;;1.62;1.15;;;;;;;;;;2347590;57;21061;-76
2022/09/03 08:07:22;;;;;;;4.32;1.08;;;;;;;;;;2347492;57;21042;-76
2022/09/03 08:09:49;;;;;;;1.73;1.20;;;;;;;;;;2347602;57;21602;-77
2022/09/03 08:12:16;;;;;;;1.83;1.25;;;;;;;;;;2593644;52;21046;-76
2022/09/03 08:14:43;;;;;;;2.25;1.40;;;;;;;;;;2594853;52;21642;-75
2022/09/03 08:17:11;;;;;;;1.80;1.45;;;;;;;;;;2345685;57;21591;-75
2022/09/03 08:19:39;;;;;;;3.08;1.10;;;;;;;;;;2346457;57;21070;-74
2022/09/03 08:22:06;;;;;;;1.65;1.30;;;;;;;;;;2346283;57;21037;-75
2022/09/03 08:24:34;;;;;;;2.05;1.20;;;;;;;;;;2347148;57;21104;-76
2022/09/03 08:27:02;;;;;;;2.17;1.50;;;;;;;;;;2345864;57;21037;-76
2022/09/03 08:29:29;;;;;;;2.92;1.20;;;;;;;;;;2594522;53;21650;-76
2022/09/03 08:31:56;;;;;;;3.30;1.40;;;;;;;;;;2345757;57;21070;-76
2022/09/03 08:34:23;;;;;;;1.87;1.10;;;;;;;;;;2593755;53;21549;-76
2022/09/03 08:36:51;;;;;;;2.70;1.00;;;;;;;;;;2594272;53;21086;-76
2022/09/03 08:39:18;;;;;;;1.95;1.30;;;;;;;;;;2594205;53;21030;-76
2022/09/03 08:42:01;;;;;;;1.50;1.20;;;;;;;;;;2594495;52;21046;-76
2022/09/03 08:44:30;;;;;;;1.95;1.00;;;;;;;;;;2346112;57;21177;-76
2022/09/03 08:47:00;;;;;;;3.92;1.30;;;;;;;;;;2594225;53;21033;-75
2022/09/03 08:49:28;;;;;;;2.75;1.17;;;;;;;;;;2593499;53;21054;-76
2022/09/03 08:51:56;;;;;;;2.80;1.30;;;;;;;;;;2347052;57;21089;-76
2022/09/03 08:54:26;;;;;;;4.43;1.02;;;;;;;;;;2346563;57;21041;-76
2022/09/03 08:56:54;;;;;;;4.05;1.23;;;;;;;;;;2346130;57;21641;-76
2022/09/03 08:59:22;;;;;;;1.20;1.00;;;;;;;;;;2347107;57;21653;-77
2022/09/03 09:01:52;;;;;;;2.00;1.20;;;;;;;;;;2347025;57;21046;-76
2022/09/03 09:04:24;;;;;;;2.90;1.40;;;;;;;;;;2346208;57;21696;-76
2022/09/03 09:06:56;;;;;;;2.33;1.30;;;;;;;;;;2345515;57;21183;-74
2022/09/03 09:09:28;;;;;;;2.20;1.25;;;;;;;;;;2345958;57;21104;-74
2022/09/03 09:12:01;;;;;;;3.85;1.10;;;;;;;;;;2346692;57;21165;-75
2022/09/03 09:14:34;;;;;;;2.10;1.55;;;;;;;;;;2345174;57;21094;-74
2022/09/03 09:17:08;;;;;;;1.65;1.40;;;;;;;;;;2345625;57;21551;-74
2022/09/03 09:19:42;;;;;;;1.48;1.05;;;;;;;;;;2592666;53;21172;-74
2022/09/03 09:22:11;;;;;;;2.45;1.12;;;;;;;;;;2344026;57;21554;-74
2022/09/03 09:24:41;;;;;;;1.98;1.30;;;;;;;;;;2345149;57;21104;-74
2022/09/03 09:27:09;;;;;;;1.85;1.05;;;;;;;;;;2591585;53;21045;-75
2022/09/03 09:29:36;;;;;;;6.87;1.67;;;;;;;;;;2345348;57;21054;-74
2022/09/03 09:32:04;;;;;;;2.65;1.20;;;;;;;;;;2345677;57;21152;-74
2022/09/03 09:34:35;;;;;;;1.40;1.00;;;;;;;;;;2345665;57;21648;-74
2022/09/03 09:37:03;;;;;;;1.95;1.02;;;;;;;;;;2344939;57;21110;-74
2022/09/03 09:39:30;;;;;;;3.33;1.10;;;;;;;;;;2593429;53;21090;-74
2022/09/03 09:41:58;;;;;;;3.87;1.27;;;;;;;;;;2344901;57;21112;-73
2022/09/03 09:44:26;;;;;;;1.05;1.00;;;;;;;;;;2345551;57;21035;-74
2022/09/03 09:47:05;;;;;;;1.08;0.75;;;;;;;;;;2592315;52;21124;-74
2022/09/03 09:49:34;;;;;;;3.55;1.00;;;;;;;;;;2345670;57;21124;-74
2022/09/03 09:52:03;;;;;;;2.83;1.77;;;;;;;;;;2346325;57;21050;-74
2022/09/03 09:54:30;;;;;;;0.80;0.80;;;;;;;;;;2346133;57;21033;-74
2022/09/03 09:59:36;;;;;;;4.43;1.30;;;;;;;;;;2354888;57;22086;-74
2022/09/03 10:02:11;;;;;;;1.45;0.98;;;;;;;;;;2362178;56;21059;-76
2022/09/03 10:04:39;;;;;;;1.75;1.10;;;;;;;;;;2367168;56;21371;-72
2022/09/03 10:07:18;;;;;;;2.10;1.58;;;;;;;;;;2368412;56;21119;-73
2022/09/03 10:09:45;;;;;;;1.33;1.23;;;;;;;;;;2619387;52;21184;-73
2022/09/03 10:12:18;;;;;;;4.62;1.17;;;;;;;;;;2366741;56;21586;-73
2022/09/03 10:14:47;;;;;;;0.90;0.90;;;;;;;;;;2624016;52;21619;-74
2022/09/03 10:17:19;;;;;;;2.92;1.20;;;;;;;;;;2372887;56;21126;-74
2022/09/03 10:20:26;;;;;;;3.65;1.20;;;;;;;;;;2626927;52;21028;-74
2022/09/03 10:22:54;;;;;;;3.05;0.90;;;;;;;;;;2626791;52;21110;-73
2022/09/03 10:25:23;;;;;;;3.10;1.08;;;;;;;;;;2372971;56;21023;-72
2022/09/03 10:27:52;;;;;;;1.50;0.85;;;;;;;;;;2627049;52;21066;-73
2022/09/03 10:30:21;;;;;;;1.73;1.15;;;;;;;;;;2625558;52;21097;-72
2022/09/03 10:32:52;;;;;;;1.87;0.90;;;;;;;;;;2374479;56;21158;-73
2022/09/03 10:35:27;;;;;;;3.25;0.90;;;;;;;;;;2373185;56;21129;-72
2022/09/03 10:37:56;;;;;;;1.65;0.80;;;;;;;;;;2372423;56;21097;-73
2022/09/03 10:40:30;;;;;;;4.47;1.00;;;;;;;;;;2626331;52;21566;-74
2022/09/03 10:43:06;;;;;;;2.33;0.90;;;;;;;;;;2627435;52;21031;-74
2022/09/03 10:45:38;;;;;;;1.60;0.90;;;;;;;;;;2372718;56;21062;-72
2022/09/03 10:48:12;;;;;;;3.05;0.70;;;;;;;;;;2374174;56;21316;-73
2022/09/03 10:50:38;;;;;;;;;;;;;;;;;;2374420;56;21554;-72
2022/09/03 10:53:13;;;;;;;2.10;0.80;;;;;;;;;;2373355;56;20131;-72
2022/09/03 10:55:44;;;;;;;3.45;1.10;;;;;;;;;;2372868;56;21554;-73
2022/09/03 10:58:18;;;;;;;1.45;0.85;;;;;;;;;;2373860;56;21046;-73
2022/09/03 11:00:50;;;;;;;1.42;1.08;;;;;;;;;;2627293;52;21193;-72
2022/09/03 11:03:37;;;;;;;1.65;0.70;;;;;;;;;;2373449;56;21118;-74
2022/09/03 11:06:08;;;;;;;1.65;1.00;;;;;;;;;;2372464;56;21130;-73
2022/09/03 11:08:42;;;;;;;1.60;1.00;;;;;;;;;;2373248;56;21121;-72
2022/09/03 11:11:08;;;;;;;;;;;;;;;;;;2629595;52;21043;-73
2022/09/03 11:13:38;;;;;;;1.17;0.90;;;;;;;;;;2625595;52;20382;-74
2022/09/03 11:16:11;;;;;;;2.50;1.15;;;;;;;;;;2626060;52;21102;-73
2022/09/03 11:18:41;;;;;;;2.97;1.07;;;;;;;;;;2372692;56;21170;-73
2022/09/03 11:21:10;;;;;;;1.80;1.25;;;;;;;;;;2626718;52;21102;-74
2022/09/03 11:23:41;;;;;;;2.78;1.00;;;;;;;;;;2625757;52;21654;-74
2022/09/03 11:26:11;;;;;;;3.22;1.00;;;;;;;;;;2371686;56;21062;-74
2022/09/03 11:28:44;;;;;;;3.78;0.82;;;;;;;;;;2624710;52;21102;-73
2022/09/03 11:31:20;;;;;;;1.12;0.80;;;;;;;;;;2371866;56;21109;-74
2022/09/03 11:33:52;;;;;;;2.05;1.27;;;;;;;;;;2370843;56;21149;-73
2022/09/03 11:36:28;;;;;;;1.17;1.00;;;;;;;;;;2370547;56;21079;-73
2022/09/03 11:38:55;;;;;;;1.40;1.08;;;;;;;;;;2370397;56;21119;-73
2022/09/03 11:41:27;;;;;;;2.25;0.90;;;;;;;;;;2622456;52;21098;-74
2022/09/03 11:43:54;;;;;;;1.08;0.80;;;;;;;;;;2371684;56;21066;-74
2022/09/03 11:46:29;;;;;;;21.50;2.40;;;;;;;;;;2622887;52;21067;-73
2022/09/03 11:48:57;;;;;;;1.48;1.02;;;;;;;;;;2373542;56;21880;-80
2022/09/03 11:51:32;;;;;;;1.12;0.95;;;;;;;;;;2627099;52;21035;-79
2022/09/03 11:54:01;;;;;;;0.90;0.80;;;;;;;;;;2374670;56;21046;-75
2022/09/03 11:56:28;;;;;;;0.95;0.60;;;;;;;;;;2372209;56;21102;-75
2022/09/03 11:59:17;;;;;;;2.40;1.17;;;;;;;;;;2626373;52;21118;-76
2022/09/03 12:01:51;;;;;;;1.90;0.82;;;;;;;;;;2356203;56;21047;-76
2022/09/03 12:04:20;;;;;;;1.73;0.95;;;;;;;;;;2626134;52;21035;-76
2022/09/03 12:07:13;;;;;;;2.05;1.08;;;;;;;;;;2625714;52;21121;-77
2022/09/03 12:09:56;;;;;;;2.28;0.90;;;;;;;;;;2368780;56;21519;-78
2022/09/03 12:12:35;;;;;;;1.02;0.90;;;;;;;;;;2373849;56;21146;-79
2022/09/03 12:15:05;;;;;;;4.12;1.17;;;;;;;;;;2371958;56;21633;-80
2022/09/03 12:17:35;;;;;;;3.15;0.70;;;;;;;;;;2372059;56;21058;-79
2022/09/03 12:20:03;;;;;;;0.95;0.77;;;;;;;;;;2374779;56;21090;-79
2022/09/03 12:22:30;;;;;;;0.73;0.70;;;;;;;;;;2373685;56;21079;-79
2022/09/03 12:25:07;;;;;;;1.27;0.80;;;;;;;;;;2372891;56;21496;-79
2022/09/03 12:27:34;;;;;;;4.18;0.82;;;;;;;;;;2373657;56;21054;-79
2022/09/03 12:30:03;;;;;;;3.42;1.00;;;;;;;;;;2625072;52;21051;-79
2022/09/03 12:32:35;;;;;;;1.15;0.80;;;;;;;;;;2373521;56;21051;-79
2022/09/03 12:35:11;;;;;;;1.83;0.82;;;;;;;;;;2626369;52;21138;-79
2022/09/03 12:37:39;;;;;;;4.90;0.82;;;;;;;;;;2372480;56;21036;-79
2022/09/03 12:40:17;;;;;;;0.98;0.70;;;;;;;;;;2627430;52;21111;-79
2022/09/03 12:42:44;;;;;;;0.82;0.60;;;;;;;;;;2626862;52;21792;-79
2022/09/03 12:45:14;;;;;;;4.80;1.00;;;;;;;;;;2627362;52;21042;-79
2022/09/03 12:47:42;;;;;;;1.33;0.80;;;;;;;;;;2627080;52;21114;-79
2022/09/03 12:50:10;;;;;;;1.75;0.75;;;;;;;;;;2626397;52;21074;-79
2022/09/03 12:52:39;;;;;;;1.25;0.85;;;;;;;;;;2626762;52;21563;-80
2022/09/03 12:55:13;;;;;;;1.30;0.80;;;;;;;;;;2626790;52;21063;-79
2022/09/03 12:57:43;;;;;;;1.75;0.90;;;;;;;;;;2626214;52;21035;-79
2022/09/03 13:00:14;;;;;;;3.75;0.80;;;;;;;;;;2373546;56;21083;-78
2022/09/03 13:02:46;;;;;;;1.87;0.88;;;;;;;;;;2373237;56;21136;-78
2022/09/03 13:05:16;;;;;;;1.00;0.90;;;;;;;;;;2372088;56;21054;-78
2022/09/03 13:07:45;;;;;;;5.68;0.88;;;;;;;;;;2372664;56;21178;-78
2022/09/03 13:10:23;;;;;;;1.92;0.90;;;;;;;;;;2625129;52;21034;-77
2022/09/03 13:12:51;;;;;;;1.10;0.68;;;;;;;;;;2439733;55;21191;-76
2022/09/03 13:15:20;;;;;;;2.60;0.80;;;;;;;;;;2239706;60;21144;-76
2022/09/03 13:17:57;;;;;;;1.73;0.65;;;;;;;;;;2240780;60;21730;-78
2022/09/03 13:20:32;;;;;;;5.70;1.00;;;;;;;;;;2239484;60;21063;-79
2022/09/03 13:23:10;;;;;;;1.23;0.65;;;;;;;;;;2239725;60;21147;-76
2022/09/03 13:25:42;;;;;;;1.25;0.80;;;;;;;;;;2238603;60;21162;-78
2022/09/03 13:28:16;;;;;;;0.85;0.60;;;;;;;;;;2239248;60;21060;-77
2022/09/03 13:30:48;;;;;;;2.00;0.70;;;;;;;;;;2242429;56;21072;-78
2022/09/03 13:33:17;;;;;;;0.82;0.73;;;;;;;;;;2238719;60;21068;-78
2022/09/03 13:35:47;;;;;;;0.98;0.80;;;;;;;;;;2238978;60;21147;-78
2022/09/03 13:38:22;;;;;;;1.00;0.70;;;;;;;;;;2259616;56;21163;-78
2022/09/03 13:40:52;;;;;;;3.92;1.00;;;;;;;;;;2239334;60;21190;-77
2022/09/03 13:43:26;;;;;;;2.08;0.80;;;;;;;;;;2239767;60;21068;-78
2022/09/03 13:45:57;;;;;;;2.08;0.80;;;;;;;;;;2245105;56;21557;-77
2022/09/03 13:51:16;;;;;;;1.50;0.73;;;;;;;;;;2240165;56;21032;-79
2022/09/03 13:53:48;;;;;;;2.40;0.90;;;;;;;;;;2239386;60;21710;-78
2022/09/03 13:56:19;;;;;;;1.55;0.80;;;;;;;;;;2252321;56;21614;-78
2022/09/03 13:58:48;;;;;;;2.33;0.80;;;;;;;;;;2238882;60;22481;-79
2022/09/03 14:01:21;;;;;;;1.73;0.90;;;;;;;;;;2239949;60;21155;-78
2022/09/03 14:03:51;;;;;;;1.30;0.80;;;;;;;;;;2248033;56;21096;-78
2022/09/03 14:06:35;;;;;;;1.77;1.00;;;;;;;;;;2238898;60;21179;-78
2022/09/03 14:09:09;;;;;;;1.75;0.90;;;;;;;;;;2239907;60;21136;-77
2022/09/03 14:11:35;;;;;;;;;;;;;;;;;;2246112;56;21593;-78
2022/09/03 14:14:12;;;;;;;1.90;0.90;;;;;;;;;;2262598;56;20963;-79
2022/09/03 14:16:41;;;;;;;2.92;1.00;;;;;;;;;;2239399;60;21199;-78
2022/09/03 14:19:11;;;;;;;1.73;0.80;;;;;;;;;;2239977;60;21616;-78
2022/09/03 14:21:42;;;;;;;2.42;0.73;;;;;;;;;;2241052;56;21076;-79
2022/09/03 14:24:14;;;;;;;2.67;0.80;;;;;;;;;;2238779;60;21361;-79
2022/09/03 14:26:51;;;;;;;3.40;0.90;;;;;;;;;;2256491;56;21099;-77
2022/09/03 14:29:20;;;;;;;2.35;0.95;;;;;;;;;;2239079;60;21152;-78
2022/09/03 14:31:58;;;;;;;4.18;1.17;;;;;;;;;;2240212;60;21227;-78
2022/09/03 14:34:31;;;;;;;1.05;0.90;;;;;;;;;;2239887;60;21378;-79
2022/09/03 14:37:03;;;;;;;1.27;0.80;;;;;;;;;;2240435;60;21143;-79
2022/09/03 14:39:33;;;;;;;1.12;0.70;;;;;;;;;;2241181;60;21124;-77
2022/09/03 14:42:09;;;;;;;1.80;0.85;;;;;;;;;;2262469;56;21624;-76
2022/09/03 14:44:39;;;;;;;0.70;0.60;;;;;;;;;;2238124;60;21056;-75
2022/09/03 14:49:56;;;;;;;1.15;0.90;;;;;;;;;;2327855;57;22107;-74
2022/09/03 14:52:35;;;;;;;0.62;0.60;;;;;;;;;;2344715;57;21057;-75
2022/09/03 14:55:11;;;;;;;2.17;0.82;;;;;;;;;;2343934;57;21086;-74
2022/09/03 14:57:48;;;;;;;0.57;0.52;;;;;;;;;;2344405;57;21022;-76
2022/09/03 15:00:16;;;;;;;1.48;0.82;;;;;;;;;;2343412;57;21126;-74
2022/09/03 15:03:15;;;;;;;1.12;0.73;;;;;;;;;;2344282;57;21573;-74
2022/09/03 15:06:02;;;;;;;2.90;0.80;;;;;;;;;;2286038;57;21133;-74
2022/09/03 15:08:38;;;;;;;1.02;0.70;;;;;;;;;;2345375;57;21070;-79
2022/09/03 15:11:13;;;;;;;1.23;0.82;;;;;;;;;;2345899;55;21049;-80
2022/09/03 15:13:46;;;;;;;11.45;1.08;;;;;;;;;;2345778;57;21660;-79
2022/09/03 15:16:19;;;;;;;0.90;0.70;;;;;;;;;;2344551;57;21101;-80